createdAt,value
2023-03-12T00:01:40.867Z,2.40
2023-03-12T00:04:10.915Z,2.03
2023-03-12T00:06:40.992Z,2.25
2023-03-12T00:09:11.186Z,2.95
2023-03-12T00:11:41.179Z,2.55
2023-03-12T00:14:11.437Z,2.30
2023-03-12T00:16:41.495Z,2.50
2023-03-12T00:19:13.645Z,3.13
2023-03-12T00:21:43.662Z,2.30
2023-03-12T00:24:14.339Z,2.85
2023-03-12T00:26:44.694Z,2.63
2023-03-12T00:29:14.940Z,2.53
2023-03-12T00:31:45.483Z,2.58
2023-03-12T00:34:18.374Z,2.70
2023-03-12T00:36:48.407Z,2.63
2023-03-12T00:39:18.441Z,2.70
2023-03-12T00:41:48.454Z,2.50
2023-03-12T00:44:18.626Z,2.42
2023-03-12T00:46:48.676Z,2.47
2023-03-12T00:49:19.208Z,2.38
2023-03-12T00:51:49.202Z,3.05
2023-03-12T00:54:19.231Z,2.30
2023-03-12T00:56:50.179Z,2.63
2023-03-12T00:59:20.212Z,2.45
2023-03-12T01:01:50.273Z,2.75
2023-03-12T01:04:20.580Z,3.58
2023-03-12T01:06:50.668Z,2.83
2023-03-12T01:09:19.592Z,2.17
2023-03-12T01:11:47.474Z,2.30
2023-03-12T01:14:15.905Z,2.28
2023-03-12T01:16:44.424Z,2.30
2023-03-12T01:19:13.367Z,2.45
2023-03-12T01:21:43.413Z,2.58
2023-03-12T01:24:13.457Z,2.67
2023-03-12T01:26:43.508Z,2.80
2023-03-12T01:29:13.568Z,3.25
2023-03-12T01:31:43.585Z,2.30
2023-03-12T01:34:13.962Z,2.53
2023-03-12T01:36:42.693Z,2.70
2023-03-12T01:39:10.524Z,2.70
2023-03-12T01:41:38.877Z,2.55
2023-03-12T01:44:15.110Z,2.55
2023-03-12T01:46:46.225Z,2.75
2023-03-12T01:49:34.296Z,3.00
2023-03-12T01:52:15.241Z,2.28
2023-03-12T01:55:22.388Z,3.13
2023-03-12T01:57:58.817Z,3.00
2023-03-12T02:00:29.015Z,3.15
2023-03-12T02:03:08.944Z,2.50
2023-03-12T02:05:55.266Z,2.80
2023-03-12T02:08:26.900Z,2.50
2023-03-12T02:10:56.956Z,2.33
2023-03-12T02:13:28.063Z,2.90
2023-03-12T02:15:58.340Z,2.72
2023-03-12T02:18:29.274Z,2.28
2023-03-12T02:21:18.396Z,2.60
2023-03-12T02:24:21.436Z,3.00
2023-03-12T02:26:50.955Z,2.70
2023-03-12T02:29:19.397Z,2.55
2023-03-12T02:32:00.307Z,2.50
2023-03-12T02:34:30.532Z,2.47
2023-03-12T02:36:59.748Z,2.63
2023-03-12T02:39:29.728Z,2.70
2023-03-12T02:42:00.970Z,2.30
2023-03-12T02:44:36.520Z,2.30
2023-03-12T02:47:05.370Z,2.80
2023-03-12T02:49:35.847Z,2.60
2023-03-12T02:52:05.877Z,3.00
2023-03-12T02:54:35.628Z,2.80
2023-03-12T02:57:05.696Z,2.55
2023-03-12T02:59:35.524Z,2.58
2023-03-12T03:02:06.995Z,2.97
2023-03-12T03:04:35.748Z,3.17
2023-03-12T03:07:06.051Z,3.50
2023-03-12T03:09:35.927Z,3.75
2023-03-12T03:12:10.242Z,3.70
2023-03-12T03:14:39.610Z,2.58
2023-03-12T03:17:09.451Z,2.70
2023-03-12T03:19:39.186Z,2.58
2023-03-12T03:22:09.036Z,3.15
2023-03-12T03:24:38.676Z,2.60
2023-03-12T03:27:09.072Z,2.78
2023-03-12T03:29:38.756Z,3.50
2023-03-12T03:32:08.875Z,2.67
2023-03-12T03:34:39.112Z,2.80
2023-03-12T03:37:09.191Z,2.92
2023-03-12T03:39:38.975Z,2.78
2023-03-12T03:42:13.013Z,2.50
2023-03-12T03:44:43.128Z,2.95
2023-03-12T03:47:12.790Z,2.95
2023-03-12T03:49:42.539Z,3.25
2023-03-12T03:52:12.232Z,3.08
2023-03-12T03:54:42.075Z,3.10
2023-03-12T03:57:11.898Z,2.85
2023-03-12T03:59:41.537Z,2.80
2023-03-12T04:02:11.334Z,4.07
2023-03-12T04:04:41.196Z,2.90
2023-03-12T04:07:09.697Z,3.35
2023-03-12T04:09:38.413Z,3.50
2023-03-12T04:12:13.102Z,3.95
2023-03-12T04:14:43.105Z,3.22
2023-03-12T04:17:13.266Z,3.38
2023-03-12T04:19:43.235Z,3.33
2023-03-12T04:22:13.678Z,3.92
2023-03-12T04:24:43.370Z,3.75
2023-03-12T04:27:13.297Z,4.93
2023-03-12T04:29:43.516Z,4.55
2023-03-12T04:32:13.187Z,4.15
2023-03-12T04:34:41.921Z,4.53
2023-03-12T04:37:16.274Z,4.30
2023-03-12T04:39:46.406Z,4.63
2023-03-12T04:42:16.140Z,4.30
2023-03-12T04:44:45.921Z,4.38
2023-03-12T04:47:15.704Z,4.70
2023-03-12T04:49:45.742Z,4.78
2023-03-12T04:52:17.652Z,4.47
2023-03-12T04:54:47.944Z,5.00
2023-03-12T04:57:18.254Z,4.72
2023-03-12T04:59:48.367Z,5.13
2023-03-12T05:02:17.795Z,4.68
2023-03-12T05:04:47.590Z,4.55
2023-03-12T05:07:18.058Z,4.63
2023-03-12T05:09:48.038Z,4.60
2023-03-12T05:12:17.954Z,5.25
2023-03-12T05:14:47.926Z,4.75
2023-03-12T05:17:17.743Z,4.13
2023-03-12T05:19:47.511Z,4.90
2023-03-12T05:22:18.724Z,4.57
2023-03-12T05:24:47.767Z,5.05
2023-03-12T05:27:18.014Z,5.28
2023-03-12T05:29:47.851Z,4.53
2023-03-12T05:32:17.676Z,5.15
2023-03-12T05:34:47.510Z,4.60
2023-03-12T05:37:16.027Z,5.00
2023-03-12T05:39:46.927Z,5.13
2023-03-12T05:42:19.342Z,4.85
2023-03-12T05:44:48.825Z,5.50
2023-03-12T05:47:19.850Z,4.85
2023-03-12T05:49:49.108Z,5.07
2023-03-12T05:52:18.754Z,4.53
2023-03-12T05:54:48.644Z,5.35
2023-03-12T05:57:18.301Z,4.30
2023-03-12T05:59:48.142Z,4.10
2023-03-12T06:02:17.948Z,4.75
2023-03-12T06:04:47.772Z,4.55
2023-03-12T06:07:17.480Z,4.85
2023-03-12T06:09:47.420Z,4.75
2023-03-12T06:12:17.145Z,4.43
2023-03-12T06:14:46.949Z,5.03
2023-03-12T06:17:16.914Z,4.68
2023-03-12T06:19:51.575Z,4.25
2023-03-12T06:22:20.320Z,4.32
2023-03-12T06:24:49.552Z,4.03
2023-03-12T06:27:18.145Z,3.47
2023-03-12T06:29:47.327Z,4.05
2023-03-12T06:32:18.581Z,3.97
2023-03-12T06:34:47.925Z,3.70
2023-03-12T06:37:17.990Z,3.72
2023-03-12T06:39:47.907Z,2.95
2023-03-12T06:42:18.609Z,3.40
2023-03-12T06:44:50.336Z,2.83
2023-03-12T06:47:19.904Z,3.25
2023-03-12T06:49:49.353Z,2.70
2023-03-12T06:52:19.152Z,2.65
2023-03-12T06:54:49.013Z,3.15
2023-03-12T06:57:18.846Z,3.15
2023-03-12T06:59:50.534Z,2.90
2023-03-12T07:02:19.055Z,3.03
2023-03-12T07:04:48.850Z,2.63
2023-03-12T07:07:20.139Z,2.40
2023-03-12T07:09:49.402Z,2.90
2023-03-12T07:12:19.222Z,3.63
2023-03-12T07:14:48.986Z,2.97
2023-03-12T07:17:18.773Z,3.00
2023-03-12T07:19:49.842Z,2.95
2023-03-12T07:22:18.860Z,3.13
2023-03-12T07:24:48.461Z,3.15
2023-03-12T07:27:19.083Z,3.22
2023-03-12T07:29:48.567Z,3.10
2023-03-12T07:32:18.809Z,2.88
2023-03-12T07:34:48.583Z,3.75
2023-03-12T07:37:18.552Z,3.00
2023-03-12T07:39:52.325Z,2.95
2023-03-12T07:42:22.185Z,3.40
2023-03-12T07:44:52.002Z,3.08
2023-03-12T07:47:23.942Z,3.40
2023-03-12T07:49:54.038Z,3.65
2023-03-12T07:52:23.830Z,3.85
2023-03-12T07:54:52.870Z,4.32
2023-03-12T07:57:20.601Z,3.97
2023-03-12T07:59:48.982Z,3.67
2023-03-12T08:02:17.346Z,4.47
2023-03-12T08:04:45.626Z,3.67
2023-03-12T08:07:15.576Z,4.28
2023-03-12T08:09:45.881Z,4.00
2023-03-12T08:12:15.940Z,3.70
2023-03-12T08:14:46.748Z,4.07
2023-03-12T08:17:17.482Z,3.97
2023-03-12T08:19:47.058Z,3.78
2023-03-12T08:24:44.235Z,3.50
2023-03-12T08:27:14.432Z,3.60
2023-03-12T08:29:43.178Z,4.15
2023-03-12T08:32:11.681Z,3.55
2023-03-12T08:34:40.214Z,4.18
2023-03-12T08:37:09.858Z,3.42
2023-03-12T08:39:39.775Z,3.95
2023-03-12T08:42:13.664Z,3.20
2023-03-12T08:44:41.068Z,3.28
2023-03-12T08:47:10.745Z,3.90
2023-03-12T08:49:40.620Z,3.20
2023-03-12T08:52:10.586Z,3.50
2023-03-12T08:54:40.644Z,3.53
2023-03-12T08:57:10.691Z,3.15
2023-03-12T08:59:40.767Z,3.85
2023-03-12T09:02:13.010Z,3.38
2023-03-12T09:04:42.190Z,4.45
2023-03-12T09:07:13.175Z,2.88
2023-03-12T09:09:41.733Z,2.53
2023-03-12T09:12:17.725Z,2.55
2023-03-12T09:15:03.739Z,2.88
2023-03-12T09:17:34.537Z,2.80
2023-03-12T09:20:08.522Z,2.58
2023-03-12T09:22:38.633Z,3.03
2023-03-12T09:25:11.469Z,3.08
2023-03-12T09:27:47.982Z,2.67
2023-03-12T09:30:21.874Z,2.80
2023-03-12T09:32:50.075Z,2.53
2023-03-12T09:35:20.065Z,2.72
2023-03-12T09:37:51.434Z,2.72
2023-03-12T09:40:29.597Z,2.70
2023-03-12T09:43:25.922Z,3.05
2023-03-12T09:45:57.439Z,3.22
2023-03-12T09:48:37.817Z,3.38
2023-03-12T09:51:28.471Z,2.70
2023-03-12T09:54:07.796Z,2.53
2023-03-12T09:56:38.746Z,2.25
2023-03-12T09:59:14.616Z,2.70
2023-03-12T10:02:15.685Z,2.00
2023-03-12T10:05:12.605Z,2.20
2023-03-12T10:08:31.746Z,1.92
2023-03-12T10:11:36.616Z,1.90
2023-03-12T10:14:31.711Z,2.20
2023-03-12T10:17:47.124Z,1.80
2023-03-12T10:20:37.746Z,1.90
2023-03-12T10:23:54.291Z,2.00
2023-03-12T10:26:29.382Z,1.92
2023-03-12T10:29:31.900Z,2.30
2023-03-12T10:32:38.294Z,2.10
2023-03-12T10:35:24.351Z,2.00
2023-03-12T10:38:04.724Z,1.92
2023-03-12T10:40:38.707Z,2.13
2023-03-12T10:43:07.417Z,2.20
2023-03-12T10:45:48.038Z,2.10
2023-03-12T10:48:26.334Z,2.63
2023-03-12T10:51:10.283Z,2.10
2023-03-12T10:53:47.855Z,2.75
2023-03-12T10:56:21.404Z,2.75
2023-03-12T10:58:54.176Z,3.10
2023-03-12T11:01:31.830Z,3.17
2023-03-12T11:07:21.270Z,2.30
2023-03-12T11:10:18.761Z,2.88
2023-03-12T11:13:36.428Z,3.20
2023-03-12T11:16:31.539Z,2.58
2023-03-12T11:19:06.453Z,2.58
2023-03-12T11:21:38.298Z,3.13
2023-03-12T11:24:16.199Z,3.75
2023-03-12T11:27:28.505Z,3.10
2023-03-12T11:29:56.544Z,3.47
2023-03-12T11:32:51.135Z,3.47
2023-03-12T11:35:51.177Z,3.60
2023-03-12T11:42:18.416Z,3.25
2023-03-12T11:45:26.265Z,3.22
2023-03-12T11:48:34.404Z,2.40
2023-03-12T11:51:41.618Z,2.90
2023-03-12T11:54:35.423Z,3.20
2023-03-12T11:58:06.054Z,3.08
2023-03-12T12:00:53.216Z,3.45
2023-03-12T12:03:47.675Z,3.33
2023-03-12T12:06:54.228Z,2.85
2023-03-12T12:09:46.695Z,2.97
2023-03-12T12:12:54.358Z,3.22
2023-03-12T12:15:54.275Z,3.33
2023-03-12T12:19:05.726Z,3.00
2023-03-12T12:22:03.367Z,6.05
2023-03-12T12:25:14.630Z,3.47
2023-03-12T12:28:32.732Z,3.42
2023-03-12T12:31:32.783Z,4.20
2023-03-12T12:34:24.170Z,3.60
2023-03-12T12:37:33.684Z,2.85
2023-03-12T12:40:20.753Z,3.75
2023-03-12T12:43:42.134Z,3.10
2023-03-12T12:48:57.600Z,2.60
2023-03-12T12:51:50.233Z,2.55
2023-03-12T12:54:42.260Z,3.35
2023-03-12T12:57:50.610Z,2.72
2023-03-12T13:00:58.874Z,2.90
2023-03-12T13:03:30.909Z,3.00
2023-03-12T13:06:06.536Z,2.40
2023-03-12T13:08:44.859Z,3.10
2023-03-12T13:14:05.485Z,2.75
2023-03-12T13:16:48.861Z,2.92
2023-03-12T13:19:16.081Z,2.60
2023-03-12T13:22:41.803Z,2.35
2023-03-12T13:26:02.182Z,1.90
2023-03-12T13:29:09.721Z,1.93
2023-03-12T13:31:43.688Z,3.15
2023-03-12T13:34:19.357Z,2.05
2023-03-12T13:36:59.942Z,1.80
2023-03-12T13:39:36.291Z,1.23
2023-03-12T13:42:41.944Z,1.42
2023-03-12T13:45:31.162Z,1.10
2023-03-12T13:48:06.376Z,1.45
2023-03-12T13:50:57.016Z,1.30
2023-03-12T13:53:38.662Z,1.95
2023-03-12T13:56:19.370Z,1.30
2023-03-12T13:59:18.124Z,1.60
2023-03-12T14:02:00.419Z,1.40
2023-03-12T14:04:41.226Z,1.33
2023-03-12T14:08:07.551Z,1.42
2023-03-12T14:11:13.238Z,1.65
2023-03-12T14:14:48.384Z,1.35
2023-03-12T14:17:31.114Z,1.40
2023-03-12T14:20:23.259Z,1.60
2023-03-12T14:23:06.150Z,1.58
2023-03-12T14:25:48.387Z,1.92
2023-03-12T14:28:24.268Z,1.85
2023-03-12T14:31:08.835Z,1.92
2023-03-12T14:34:00.653Z,1.67
2023-03-12T14:37:05.866Z,1.23
2023-03-12T14:39:51.030Z,1.70
2023-03-12T14:42:33.957Z,1.90
2023-03-12T14:45:06.732Z,1.40
2023-03-12T14:47:57.936Z,1.70
2023-03-12T14:50:39.148Z,1.77
2023-03-12T14:53:32.266Z,1.90
2023-03-12T14:56:15.017Z,1.65
2023-03-12T14:58:50.152Z,1.83
2023-03-12T15:01:32.765Z,1.67
2023-03-12T15:04:18.246Z,1.70
2023-03-12T15:07:06.591Z,1.55
2023-03-12T15:09:37.562Z,1.70
2023-03-12T15:12:35.241Z,1.65
2023-03-12T15:15:46.015Z,2.30
2023-03-12T15:18:33.379Z,2.60
2023-03-12T15:21:04.616Z,2.33
2023-03-12T15:23:40.582Z,2.80
2023-03-12T15:26:29.020Z,3.00
2023-03-12T15:29:30.406Z,2.50
2023-03-12T15:32:03.569Z,2.80
2023-03-12T15:34:39.821Z,3.10
2023-03-12T15:37:43.088Z,3.67
2023-03-12T15:40:32.207Z,3.08
2023-03-12T15:43:03.423Z,3.90
2023-03-12T15:45:41.109Z,3.13
2023-03-12T15:48:41.276Z,3.42
2023-03-12T15:51:40.596Z,5.50
2023-03-12T15:54:16.407Z,4.00
2023-03-12T15:56:46.638Z,3.20
2023-03-12T15:59:16.681Z,3.30
2023-03-12T16:01:53.294Z,4.53
2023-03-12T16:04:24.772Z,7.18
2023-03-12T16:06:54.018Z,4.70
2023-03-12T16:09:29.364Z,4.25
2023-03-12T16:11:57.725Z,4.57
2023-03-12T16:14:36.392Z,4.78
2023-03-12T16:17:17.861Z,5.43
2023-03-12T16:19:47.938Z,4.90
2023-03-12T16:22:20.314Z,5.07
2023-03-12T16:24:50.371Z,7.13
2023-03-12T16:27:31.632Z,5.78
2023-03-12T16:30:02.526Z,9.55
2023-03-12T16:32:32.658Z,6.78
2023-03-12T16:35:18.741Z,4.95
2023-03-12T16:37:49.100Z,5.43
2023-03-12T16:40:32.592Z,4.95
2023-03-12T16:43:16.313Z,4.90
2023-03-12T16:45:49.700Z,4.40
2023-03-12T16:48:24.501Z,5.40
2023-03-12T16:50:58.930Z,5.35
2023-03-12T16:53:29.314Z,5.43
2023-03-12T16:56:02.528Z,4.63
2023-03-12T16:58:33.362Z,4.88
2023-03-12T17:01:03.639Z,5.78
2023-03-12T17:03:39.000Z,5.45
2023-03-12T17:06:27.765Z,4.70
2023-03-12T17:08:57.535Z,4.60
2023-03-12T17:11:35.221Z,4.78
2023-03-12T17:14:22.526Z,4.78
2023-03-12T17:16:52.001Z,5.22
2023-03-12T17:19:20.373Z,4.85
2023-03-12T17:21:50.303Z,3.70
2023-03-12T17:24:20.453Z,4.82
2023-03-12T17:26:52.014Z,4.32
2023-03-12T17:29:22.301Z,4.95
2023-03-12T17:31:52.644Z,4.68
2023-03-12T17:34:22.757Z,4.50
2023-03-12T17:36:52.839Z,5.45
2023-03-12T17:39:24.087Z,5.55
2023-03-12T17:41:54.295Z,5.30
2023-03-12T17:44:24.534Z,5.20
2023-03-12T17:46:59.708Z,4.97
2023-03-12T17:49:30.065Z,5.43
2023-03-12T17:52:03.556Z,5.80
2023-03-12T17:54:33.716Z,6.18
2023-03-12T17:57:03.887Z,6.20
2023-03-12T17:59:33.941Z,6.07
2023-03-12T18:02:04.656Z,6.43
2023-03-12T18:04:35.174Z,7.90
2023-03-12T18:07:05.549Z,8.02
2023-03-12T18:09:36.289Z,8.48
2023-03-12T18:12:12.389Z,8.10
2023-03-12T18:14:42.903Z,9.73
2023-03-12T18:17:13.035Z,6.97
2023-03-12T18:19:43.162Z,7.15
2023-03-12T18:22:14.667Z,8.00
2023-03-12T18:24:44.844Z,7.00
2023-03-12T18:27:15.020Z,7.07
2023-03-12T18:29:45.072Z,7.15
2023-03-12T18:32:15.249Z,6.70
2023-03-12T18:34:45.374Z,6.82
2023-03-12T18:37:15.791Z,7.25
2023-03-12T18:39:47.415Z,6.75
2023-03-12T18:42:18.080Z,7.68
2023-03-12T18:44:48.187Z,8.40
2023-03-12T18:47:19.542Z,8.65
2023-03-12T18:49:53.123Z,7.82
2023-03-12T18:52:21.127Z,8.15
2023-03-12T18:54:49.494Z,7.82
2023-03-12T18:57:17.848Z,7.35
2023-03-12T18:59:47.284Z,8.73
2023-03-12T19:02:15.160Z,8.35
2023-03-12T19:04:43.060Z,7.60
2023-03-12T19:07:11.701Z,8.18
2023-03-12T19:09:40.002Z,8.98
2023-03-12T19:12:14.384Z,7.88
2023-03-12T19:14:44.880Z,9.27
2023-03-12T19:17:13.282Z,8.48
2023-03-12T19:19:41.951Z,7.72
2023-03-12T19:22:10.265Z,9.85
2023-03-12T19:24:38.833Z,10.43
2023-03-12T19:27:07.441Z,12.75
2023-03-12T19:29:35.980Z,8.80
2023-03-12T19:32:04.568Z,10.73
2023-03-12T19:34:32.865Z,9.45
2023-03-12T19:37:01.170Z,10.13
2023-03-12T19:39:29.571Z,8.50
2023-03-12T19:41:59.326Z,9.55
2023-03-12T19:44:26.529Z,10.02
2023-03-12T19:46:55.363Z,9.98
2023-03-12T19:49:24.289Z,10.35
2023-03-12T19:51:52.180Z,10.80
2023-03-12T19:54:20.928Z,10.60
2023-03-12T19:56:49.330Z,11.05
2023-03-12T19:59:18.693Z,10.65
2023-03-12T20:01:46.473Z,10.80
2023-03-12T20:04:15.028Z,11.57
2023-03-12T20:06:43.415Z,11.15
2023-03-12T20:09:11.305Z,11.23
2023-03-12T20:11:41.497Z,11.35
2023-03-12T20:14:09.769Z,11.85
2023-03-12T20:16:38.620Z,11.45
2023-03-12T20:19:06.729Z,11.60
2023-03-12T20:21:35.255Z,11.65
2023-03-12T20:24:05.163Z,12.27
2023-03-12T20:26:32.818Z,13.23
2023-03-12T20:29:02.804Z,12.35
2023-03-12T20:31:33.825Z,12.60
2023-03-12T20:34:01.388Z,13.20
2023-03-12T20:36:29.604Z,13.82
2023-03-12T20:38:58.158Z,14.82
2023-03-12T20:41:26.776Z,16.38
2023-03-12T20:43:57.750Z,19.38
2023-03-12T20:46:27.937Z,13.98
2023-03-12T20:48:58.003Z,12.48
2023-03-12T20:51:28.161Z,14.35
2023-03-12T20:53:58.391Z,12.18
2023-03-12T20:56:28.424Z,13.80
2023-03-12T20:58:59.546Z,12.23
2023-03-12T21:01:28.968Z,11.57
2023-03-12T21:03:59.469Z,21.42
2023-03-12T21:06:29.740Z,12.10
2023-03-12T21:08:59.823Z,12.27
2023-03-12T21:11:31.344Z,14.32
2023-03-12T21:14:00.761Z,11.80
2023-03-12T21:16:30.838Z,12.95
2023-03-12T21:19:01.121Z,12.77
2023-03-12T21:21:35.262Z,11.90
2023-03-12T21:24:02.579Z,12.05
2023-03-12T21:26:31.012Z,11.38
2023-03-12T21:28:59.433Z,12.85
2023-03-12T21:31:28.036Z,11.77
2023-03-12T21:33:58.165Z,11.55
2023-03-12T21:36:28.042Z,10.98
2023-03-12T21:38:56.252Z,11.30
2023-03-12T21:41:24.910Z,11.60
2023-03-12T21:43:53.192Z,11.18
2023-03-12T21:46:24.924Z,10.90
2023-03-12T21:48:55.138Z,11.23
2023-03-12T21:51:26.204Z,10.43
2023-03-12T21:53:58.875Z,11.73
2023-03-12T21:56:30.354Z,11.23
2023-03-12T21:59:00.611Z,10.88
2023-03-12T22:01:30.684Z,10.95
2023-03-12T22:04:01.599Z,10.15
2023-03-12T22:06:32.690Z,10.48
2023-03-12T22:09:03.149Z,9.63
2023-03-12T22:11:33.277Z,10.23
2023-03-12T22:14:03.649Z,10.68
2023-03-12T22:16:33.892Z,9.73
2023-03-12T22:19:04.025Z,9.95
2023-03-12T22:21:34.122Z,10.88
2023-03-12T22:24:04.548Z,10.27
2023-03-12T22:26:35.020Z,9.32
2023-03-12T22:29:07.012Z,9.63
2023-03-12T22:31:37.265Z,9.27
2023-03-12T22:34:07.495Z,10.13
2023-03-12T22:36:40.123Z,11.38
2023-03-12T22:39:10.163Z,9.30
2023-03-12T22:41:40.185Z,9.05
2023-03-12T22:44:11.441Z,9.55
2023-03-12T22:46:39.767Z,9.43
2023-03-12T22:49:07.288Z,8.50
2023-03-12T22:51:37.470Z,9.02
2023-03-12T22:54:07.369Z,8.73
2023-03-12T22:56:37.555Z,9.40
2023-03-12T22:59:07.585Z,8.98
2023-03-12T23:01:37.694Z,9.02
2023-03-12T23:04:07.991Z,10.07
2023-03-12T23:06:38.034Z,9.10
2023-03-12T23:09:08.060Z,9.90
2023-03-12T23:11:40.564Z,9.65
2023-03-12T23:14:10.422Z,9.75
2023-03-12T23:16:40.524Z,9.52
2023-03-12T23:19:10.592Z,10.88
2023-03-12T23:21:42.195Z,9.32
2023-03-12T23:24:11.633Z,9.13
2023-03-12T23:26:43.648Z,9.23
2023-03-12T23:29:13.227Z,10.00
2023-03-12T23:31:41.515Z,9.65
2023-03-12T23:34:10.344Z,9.13
2023-03-12T23:36:38.326Z,8.30
2023-03-12T23:39:06.764Z,8.73
2023-03-12T23:41:35.110Z,9.25
2023-03-12T23:44:04.200Z,10.43
2023-03-12T23:46:32.695Z,9.32
2023-03-12T23:49:00.739Z,9.57
2023-03-12T23:51:33.290Z,10.35
2023-03-12T23:54:08.148Z,8.82
2023-03-12T23:56:41.138Z,9.82
2023-03-12T23:59:11.078Z,9.50
